Temp: --°C   Baro: 1019.1mb
  Wind: 0.0mph   Dir: SW (226°)
  Rain: 0.0mm (--mm/hr)
  Solar: W/m2  Hum: %
 
Cotswold Observatory Historical Data
Daily Summary for January 16, 2020 Units:  Metric    English   Both
Next Day »
Daily Weekly Monthly Yearly Custom
  High: Low: Average:
Temperature: 12.5 °C -17.8 °C 6.8 °C
Dew Point: 11.1 °C -17.8 °C 5.2 °C
Humidity: 92% % 79%
Wind Speed: 37.0km/h 0.0km/h 9.2km/h
Wind Gust: 46.7km/h - -
Wind direction- - SSE
Pressure: 1017.5 hPa 1005.0 hPa -
Precipitation: 5.1 mm    
Historical Graphs
 
 
Tabular Data for January 16, 2020
Time Temperature Dew Point Pressure Wind direction Wind Speed Wind Gust Humidity Rainfall Rate (Hourly) solar
00:00 6.4 °C 4.4 °C 1016.8 hPa Calm     87% 0.0 mm 0.00 W/m2
00:05 6.2 °C 4.4 °C 1016.8 hPa Calm   4.8 km/h 88% 0.0 mm 0.00 W/m2
00:10 6.0 °C 4.2 °C 1016.8 hPa Calm     88% 0.0 mm 0.00 W/m2
00:15 6.1 °C 4.4 °C 1016.8 hPa Calm     89% 0.0 mm 0.00 W/m2
00:20 6.2 °C 4.7 °C 1016.8 hPa SSE 6.4 km/h 8.0 km/h 90% 0.0 mm 0.00 W/m2
00:25 6.4 °C 4.9 °C 1016.8 hPa SE 4.7 km/h 8.0 km/h 90% 0.0 mm 0.00 W/m2
00:30 6.6 °C 5.1 °C 1017.2 hPa Calm     90% 0.0 mm 0.00 W/m2
00:35 6.6 °C 5.1 °C 1016.8 hPa SE 3.2 km/h 3.2 km/h 90% 0.0 mm 0.00 W/m2
00:40 6.4 °C 4.9 °C 1017.2 hPa Calm     90% 0.0 mm 0.00 W/m2
00:45 6.3 °C 4.8 °C 1017.2 hPa SE 1.4 km/h 6.4 km/h 90% 0.0 mm 0.00 W/m2
00:50 6.3 °C 4.9 °C 1016.8 hPa SSE 4.7 km/h 6.4 km/h 91% 0.0 mm 0.00 W/m2
00:55 6.2 °C 4.7 °C 1017.2 hPa Calm   3.2 km/h 90% 0.0 mm 0.00 W/m2
01:00 6.3 °C 4.9 °C 1017.2 hPa SE 7.9 km/h 8.0 km/h 91% 0.0 mm 0.00 W/m2
01:05 6.4 °C 4.9 °C 1017.2 hPa Calm   6.4 km/h 90% 0.0 mm 0.00 W/m2
01:10 6.3 °C 4.8 °C 1016.8 hPa SE 7.9 km/h 8.0 km/h 90% 0.0 mm 0.00 W/m2
01:15 6.2 °C 4.7 °C 1017.2 hPa Calm     90% 0.0 mm 0.00 W/m2
01:20 5.9 °C 4.4 °C 1016.8 hPa SE 3.2 km/h 6.4 km/h 90% 0.0 mm 0.00 W/m2
01:25 6.1 °C 4.7 °C 1017.2 hPa SE 1.4 km/h 8.0 km/h 91% 0.0 mm 0.00 W/m2
01:30 6.2 °C 4.8 °C 1017.2 hPa Calm     91% 0.0 mm 0.00 W/m2
01:35 6.1 °C 4.7 °C 1017.2 hPa Calm     91% 0.0 mm 0.00 W/m2
01:40 6.2 °C 5.0 °C 1017.2 hPa SE 7.9 km/h 8.0 km/h 92% 0.0 mm 0.00 W/m2
01:45 6.2 °C 5.0 °C 1017.2 hPa SE 6.4 km/h 8.0 km/h 92% 0.0 mm 0.00 W/m2
01:50 6.4 °C 5.2 °C 1017.2 hPa ESE 11.1 km/h 11.3 km/h 92% 0.0 mm 0.00 W/m2
01:55 6.6 °C 5.4 °C 1017.2 hPa ESE 6.4 km/h 9.7 km/h 92% 0.0 mm 0.00 W/m2
02:00 6.8 °C 5.6 °C 1017.2 hPa SE 7.9 km/h 11.3 km/h 92% 0.0 mm 0.00 W/m2
02:05 6.9 °C 5.5 °C 1017.2 hPa SE 6.4 km/h 11.3 km/h 91% 0.0 mm 0.00 W/m2
02:10 7.1 °C 5.7 °C 1017.2 hPa SE 7.9 km/h 11.3 km/h 91% 0.0 mm 0.00 W/m2
02:15 7.2 °C 5.8 °C 1017.2 hPa ESE 4.7 km/h 14.5 km/h 91% 0.0 mm 0.00 W/m2
02:20 7.3 °C 5.8 °C 1017.5 hPa SE 11.1 km/h 16.1 km/h 90% 0.0 mm 0.00 W/m2
02:25 7.4 °C 5.9 °C 1017.2 hPa SE 6.4 km/h 9.7 km/h 90% 0.0 mm 0.00 W/m2
02:30 7.5 °C 6.0 °C 1017.2 hPa SSE 7.9 km/h 12.9 km/h 90% 0.0 mm 0.00 W/m2
02:35 7.6 °C 6.1 °C 1017.2 hPa SE 6.4 km/h 12.9 km/h 90% 0.0 mm 0.00 W/m2
02:40 7.7 °C 6.2 °C 1017.2 hPa SE 11.1 km/h 14.5 km/h 90% 0.0 mm 0.00 W/m2
02:45 7.8 °C 6.3 °C 1017.2 hPa SE 9.7 km/h 12.9 km/h 90% 0.0 mm 0.00 W/m2
02:50 7.8 °C 6.3 °C 1017.2 hPa ESE 9.7 km/h 11.3 km/h 90% 0.0 mm 0.00 W/m2
02:55 7.9 °C 6.4 °C 1017.2 hPa SSE 3.2 km/h 12.9 km/h 90% 0.0 mm 0.00 W/m2
03:00 8.0 °C 6.5 °C 1017.2 hPa SE 7.9 km/h 17.7 km/h 90% 0.0 mm 0.00 W/m2
03:05 8.1 °C 6.6 °C 1017.2 hPa ESE 9.7 km/h 16.1 km/h 90% 0.0 mm 0.00 W/m2
03:10 8.1 °C 6.4 °C 1017.2 hPa SSE 7.9 km/h 11.3 km/h 89% 0.0 mm 0.00 W/m2
03:15 8.1 °C 6.4 °C 1016.8 hPa SE 4.7 km/h 11.3 km/h 89% 0.0 mm 0.00 W/m2
03:20 8.1 °C 6.4 °C 1016.8 hPa SSE 7.9 km/h 19.3 km/h 89% 0.0 mm 0.00 W/m2
03:25 8.2 °C 6.5 °C 1016.8 hPa SE 9.7 km/h 14.5 km/h 89% 0.0 mm 0.00 W/m2
03:30 8.1 °C 6.4 °C 1016.8 hPa ESE 4.7 km/h 11.3 km/h 89% 0.0 mm 0.00 W/m2
03:35 8.1 °C 6.4 °C 1016.8 hPa SE 7.9 km/h 11.3 km/h 89% 0.0 mm 0.00 W/m2
03:40 8.1 °C 6.4 °C 1016.8 hPa SE 3.2 km/h 11.3 km/h 89% 0.0 mm 0.00 W/m2
03:45 8.1 °C 6.4 °C 1016.8 hPa SE 4.7 km/h 11.3 km/h 89% 0.0 mm 0.00 W/m2
03:50 8.1 °C 6.4 °C 1016.8 hPa SE 9.7 km/h 9.7 km/h 89% 0.0 mm 0.00 W/m2
03:55 8.1 °C 6.4 °C 1016.8 hPa SE 4.7 km/h 8.0 km/h 89% 0.0 mm 0.00 W/m2
04:00 8.1 °C 6.4 °C 1016.8 hPa SE 11.1 km/h 16.1 km/h 89% 0.0 mm 0.00 W/m2
04:05 8.1 °C 6.4 °C 1016.8 hPa ESE 11.1 km/h 12.9 km/h 89% 0.0 mm 0.00 W/m2
04:10 8.1 °C 6.4 °C 1016.8 hPa SE 9.7 km/h 12.9 km/h 89% 0.0 mm 0.00 W/m2
04:15 8.1 °C 6.4 °C 1016.5 hPa SSE 7.9 km/h 14.5 km/h 89% 0.0 mm 0.00 W/m2
04:20 8.2 °C 6.5 °C 1016.5 hPa ESE 3.2 km/h 16.1 km/h 89% 0.0 mm 0.00 W/m2
04:25 8.1 °C 6.4 °C 1016.5 hPa SSE 3.2 km/h 12.9 km/h 89% 0.0 mm 0.00 W/m2
04:30 8.1 °C 6.4 °C 1016.1 hPa SE 4.7 km/h 8.0 km/h 89% 0.0 mm 0.00 W/m2
04:35 8.1 °C 6.4 °C 1016.1 hPa SSE 3.2 km/h 4.8 km/h 89% 0.0 mm 0.00 W/m2
04:40 8.1 °C 6.4 °C 1016.1 hPa SE 7.9 km/h 11.3 km/h 89% 0.0 mm 0.00 W/m2
04:45 8.1 °C 6.4 °C 1016.1 hPa Calm     89% 0.0 mm 0.00 W/m2
04:50 8.1 °C 6.4 °C 1016.1 hPa ESE 3.2 km/h 6.4 km/h 89% 0.0 mm 0.00 W/m2
04:55 8.0 °C 6.3 °C 1016.1 hPa SSE 1.4 km/h 6.4 km/h 89% 0.0 mm 0.00 W/m2
05:00 8.0 °C 6.3 °C 1016.1 hPa Calm   3.2 km/h 89% 0.0 mm 0.00 W/m2
05:05 8.0 °C 6.3 °C 1016.1 hPa Calm   3.2 km/h 89% 0.0 mm 0.00 W/m2
05:10 7.9 °C 6.2 °C 1015.8 hPa ESE 7.9 km/h 9.7 km/h 89% 0.0 mm 0.00 W/m2
05:15 7.9 °C 6.2 °C 1015.5 hPa Calm   8.0 km/h 89% 0.0 mm 0.00 W/m2
05:20 7.9 °C 6.2 °C 1015.5 hPa SE 1.4 km/h 8.0 km/h 89% 0.0 mm 0.00 W/m2
05:25 7.9 °C 6.2 °C 1015.5 hPa Calm   4.8 km/h 89% 0.0 mm 0.00 W/m2
05:30 8.0 °C 6.3 °C 1015.5 hPa SE 1.4 km/h 6.4 km/h 89% 0.0 mm 0.00 W/m2
05:35 8.0 °C 6.3 °C 1015.5 hPa ESE 7.9 km/h 9.7 km/h 89% 0.0 mm 0.00 W/m2
05:40 8.0 °C 6.3 °C 1015.1 hPa ESE 4.7 km/h 9.7 km/h 89% 0.0 mm 0.00 W/m2
05:45 8.0 °C 6.3 °C 1015.1 hPa ESE 4.7 km/h 8.0 km/h 89% 0.0 mm 0.00 W/m2
05:50 8.0 °C 6.3 °C 1015.1 hPa SE 7.9 km/h 16.1 km/h 89% 0.0 mm 0.00 W/m2
05:55 8.0 °C 6.3 °C 1015.1 hPa SSE 6.4 km/h 12.9 km/h 89% 0.0 mm 0.00 W/m2
06:00 -17.8 °C -17.8 °C 1015.1 hPa SSE 3.2 km/h 4.8 km/h % 0.0 mm W/m2
06:05 -17.8 °C -17.8 °C 1014.8 hPa SSE 3.2 km/h 9.7 km/h % 0.0 mm W/m2
06:10 -17.8 °C -17.8 °C 1014.8 hPa SSE 6.4 km/h 11.3 km/h % 0.0 mm W/m2
06:15 -17.8 °C -17.8 °C 1014.8 hPa South 1.4 km/h 11.3 km/h % 0.0 mm W/m2
06:20 -17.8 °C -17.8 °C 1014.8 hPa East 7.9 km/h 11.3 km/h % 0.0 mm W/m2
06:25 -17.8 °C -17.8 °C 1014.8 hPa East 6.4 km/h 16.1 km/h % 0.0 mm W/m2
06:30 -17.8 °C -17.8 °C 1014.4 hPa SSE 7.9 km/h 8.0 km/h % 0.0 mm W/m2
06:35 -17.8 °C -17.8 °C 1014.4 hPa SSE 4.7 km/h 11.3 km/h % 0.0 mm W/m2
06:40 -17.8 °C -17.8 °C 1014.4 hPa SSE 11.1 km/h 14.5 km/h % 0.0 mm W/m2
06:45 -17.8 °C -17.8 °C 1014.4 hPa East 3.2 km/h 12.9 km/h % 0.0 mm W/m2
06:50 -17.8 °C -17.8 °C 1014.4 hPa SSE 3.2 km/h 14.5 km/h % 0.0 mm W/m2
06:55 -17.8 °C -17.8 °C 1014.1 hPa SE 16.3 km/h 16.1 km/h % 0.0 mm W/m2
07:00 -17.8 °C -17.8 °C 1014.1 hPa SSE 7.9 km/h 12.9 km/h % 0.0 mm W/m2
07:05 -17.8 °C -17.8 °C 1014.1 hPa SSW 4.7 km/h 12.9 km/h % 0.0 mm W/m2
07:10 -17.8 °C -17.8 °C 1014.1 hPa South 7.9 km/h 12.9 km/h % 0.0 mm W/m2
07:15 -17.8 °C -17.8 °C 1013.8 hPa SE 9.7 km/h 16.1 km/h % 0.0 mm W/m2
07:20 -17.8 °C -17.8 °C 1013.8 hPa East 3.2 km/h 14.5 km/h % 0.0 mm W/m2
07:25 -17.8 °C -17.8 °C 1013.8 hPa SSE 4.7 km/h 9.7 km/h % 0.0 mm W/m2
07:30 -17.8 °C -17.8 °C 1013.4 hPa South 6.4 km/h 24.1 km/h % 0.0 mm W/m2
07:40 -17.8 °C -17.8 °C 1013.8 hPa SSE 13.0 km/h 19.3 km/h % 0.0 mm W/m2
07:45 -17.8 °C -17.8 °C 1013.4 hPa SSE 4.7 km/h 17.7 km/h % 0.0 mm W/m2
07:50 -17.8 °C -17.8 °C 1013.4 hPa SSE 7.9 km/h 14.5 km/h % 0.0 mm W/m2
07:55 -17.8 °C -17.8 °C 1013.8 hPa SE 6.4 km/h 25.7 km/h % 0.0 mm W/m2
08:00 -17.8 °C -17.8 °C 1013.8 hPa ESE 7.9 km/h 19.3 km/h % 0.0 mm W/m2
08:05 -17.8 °C -17.8 °C 1013.4 hPa South 6.4 km/h 14.5 km/h % 0.0 mm W/m2
08:10 -17.8 °C -17.8 °C 1013.4 hPa West 7.9 km/h 17.7 km/h % 0.0 mm W/m2
08:15 -17.8 °C -17.8 °C 1013.4 hPa South 7.9 km/h 16.1 km/h % 0.0 mm W/m2
08:20 -17.8 °C -17.8 °C 1014.1 hPa ESE 9.7 km/h 24.1 km/h % 0.0 mm W/m2
08:25 -17.8 °C -17.8 °C 1013.8 hPa SSE 6.4 km/h 14.5 km/h % 0.0 mm W/m2
08:30 -17.8 °C -17.8 °C 1013.8 hPa SSE 14.3 km/h 17.7 km/h % 0.0 mm W/m2
08:35 -17.8 °C -17.8 °C 1013.8 hPa South 7.9 km/h 22.5 km/h % 0.0 mm W/m2
08:40 9.0 °C 6.8 °C 1013.4 hPa South 17.7 km/h 20.9 km/h 86% 0.0 mm 33.00 W/m2
08:45 8.9 °C 6.7 °C 1013.4 hPa SE 7.9 km/h 14.5 km/h 86% 0.0 mm 44.00 W/m2
08:50 8.9 °C 6.7 °C 1013.4 hPa ESE 7.9 km/h 20.9 km/h 86% 0.0 mm 46.00 W/m2
08:55 8.9 °C 6.7 °C 1013.1 hPa SE 7.9 km/h 14.5 km/h 86% 0.0 mm 44.00 W/m2
09:00 8.9 °C 6.7 °C 1013.1 hPa ESE 7.9 km/h 14.5 km/h 86% 0.0 mm 46.00 W/m2
09:05 8.9 °C 6.9 °C 1012.8 hPa SSE 11.1 km/h 19.3 km/h 87% 0.0 mm 46.00 W/m2
09:10 8.9 °C 6.9 °C 1012.8 hPa SE 16.3 km/h 20.9 km/h 87% 0.0 mm 47.00 W/m2
09:15 8.9 °C 6.9 °C 1012.8 hPa SE 7.9 km/h 19.3 km/h 87% 0.0 mm 54.00 W/m2
09:20 8.9 °C 6.9 °C 1012.8 hPa SSE 6.4 km/h 24.1 km/h 87% 0.0 mm 56.00 W/m2
09:25 9.0 °C 7.0 °C 1012.4 hPa SE 9.7 km/h 24.1 km/h 87% 0.0 mm 67.00 W/m2
09:30 8.9 °C 6.9 °C 1012.4 hPa SE 9.7 km/h 14.5 km/h 87% 0.0 mm 62.00 W/m2
09:35 9.0 °C 7.0 °C 1012.1 hPa SSE 14.3 km/h 17.7 km/h 87% 0.0 mm 69.00 W/m2
09:40 9.0 °C 7.0 °C 1012.4 hPa SSE 9.7 km/h 14.5 km/h 87% 0.0 mm 83.00 W/m2
09:45 9.1 °C 7.1 °C 1012.4 hPa SE 3.2 km/h 8.0 km/h 87% 0.0 mm 105.00 W/m2
09:50 9.2 °C 7.1 °C 1012.1 hPa SE 9.7 km/h 14.5 km/h 87% 0.0 mm 105.00 W/m2
09:55 9.3 °C 7.2 °C 1011.7 hPa SE 11.1 km/h 17.7 km/h 87% 0.0 mm 123.00 W/m2
10:00 9.4 °C 7.3 °C 1012.1 hPa SE 6.4 km/h 16.1 km/h 87% 0.0 mm 77.00 W/m2
10:05 9.6 °C 7.4 °C 1011.7 hPa ESE 7.9 km/h 20.9 km/h 86% 0.0 mm 44.00 W/m2
10:10 9.7 °C 7.5 °C 1011.7 hPa SE 22.7 km/h 22.5 km/h 86% 0.0 mm 30.00 W/m2
10:15 9.8 °C 7.6 °C 1011.7 hPa SSE 16.3 km/h 25.7 km/h 86% 0.0 mm 28.00 W/m2
10:20 9.8 °C 7.6 °C 1011.4 hPa SSE 4.7 km/h 16.1 km/h 86% 0.0 mm 76.00 W/m2
10:25 9.8 °C 7.6 °C 1011.7 hPa SE 1.4 km/h 12.9 km/h 86% 0.0 mm 88.00 W/m2
10:30 9.8 °C 7.7 °C 1011.7 hPa SSE 6.4 km/h 12.9 km/h 87% 0.0 mm 47.00 W/m2
10:35 9.9 °C 7.8 °C 1011.7 hPa South 9.7 km/h 25.7 km/h 87% 0.0 mm 53.00 W/m2
10:40 9.9 °C 7.8 °C 1011.4 hPa South 11.1 km/h 16.1 km/h 87% 0.3 mm 67.00 W/m2
10:45 9.8 °C 7.9 °C 1011.1 hPa SE 19.5 km/h 25.7 km/h 88% 0.3 mm 76.00 W/m2
10:50 9.8 °C 7.9 °C 1010.7 hPa SSE 11.1 km/h 17.7 km/h 88% 0.3 mm 65.00 W/m2
10:55 9.8 °C 8.1 °C 1010.7 hPa SSE 4.7 km/h 27.4 km/h 89% 0.5 mm 46.00 W/m2
11:00 9.8 °C 8.1 °C 1010.7 hPa SSE 13.0 km/h 30.6 km/h 89% 0.5 mm 49.00 W/m2
11:05 9.8 °C 8.1 °C 1010.7 hPa SSE 20.9 km/h 22.5 km/h 89% 0.5 mm 21.00 W/m2
11:10 9.8 °C 8.1 °C 1010.7 hPa SSE 7.9 km/h 25.7 km/h 89% 0.5 mm 25.00 W/m2
11:15 9.7 °C 8.0 °C 1011.1 hPa SSW 17.7 km/h 29.0 km/h 89% 0.5 mm 19.00 W/m2
11:20 9.8 °C 8.1 °C 1010.7 hPa SE 14.3 km/h 20.9 km/h 89% 0.5 mm 25.00 W/m2
11:25 9.7 °C 8.0 °C 1010.7 hPa SSE 13.0 km/h 29.0 km/h 89% 0.8 mm 37.00 W/m2
11:30 9.7 °C 8.0 °C 1010.4 hPa SE 4.7 km/h 25.7 km/h 89% 0.8 mm 44.00 W/m2
11:35 9.7 °C 8.1 °C 1010.0 hPa ESE 6.4 km/h 29.0 km/h 90% 0.8 mm 40.00 W/m2
11:40 9.7 °C 8.1 °C 1010.0 hPa SSE 14.3 km/h 27.4 km/h 90% 0.8 mm 33.00 W/m2
11:45 9.8 °C 8.2 °C 1010.0 hPa South 19.5 km/h 29.0 km/h 90% 0.8 mm 23.00 W/m2
11:50 9.7 °C 8.1 °C 1009.7 hPa SE 11.1 km/h 27.4 km/h 90% 0.8 mm 33.00 W/m2
11:55 9.8 °C 8.2 °C 1009.7 hPa South 9.7 km/h 22.5 km/h 90% 0.5 mm 25.00 W/m2
12:00 9.8 °C 8.2 °C 1009.4 hPa SE 25.9 km/h 33.8 km/h 90% 0.8 mm 91.00 W/m2
12:05 9.8 °C 8.4 °C 1009.0 hPa South 24.1 km/h 27.4 km/h 91% 0.8 mm 49.00 W/m2
12:10 9.7 °C 8.3 °C 1009.0 hPa SSE 9.7 km/h 14.5 km/h 91% 0.8 mm 39.00 W/m2
12:15 9.8 °C 8.4 °C 1009.0 hPa South 9.7 km/h 27.4 km/h 91% 1.0 mm 60.00 W/m2
12:20 9.9 °C 8.5 °C 1009.0 hPa South 17.7 km/h 30.6 km/h 91% 1.0 mm 35.00 W/m2
12:25 9.9 °C 8.3 °C 1008.7 hPa SSE 16.3 km/h 27.4 km/h 90% 0.5 mm 67.00 W/m2
12:30 10.2 °C 8.6 °C 1009.0 hPa South 19.5 km/h 32.2 km/h 90% 0.5 mm 54.00 W/m2
12:35 10.3 °C 8.6 °C 1008.7 hPa SSE 14.3 km/h 24.1 km/h 89% 0.8 mm 39.00 W/m2
12:40 10.3 °C 8.6 °C 1008.4 hPa ESE 7.9 km/h 25.7 km/h 89% 0.8 mm 30.00 W/m2
12:45 10.3 °C 8.6 °C 1008.7 hPa ESE 3.2 km/h 25.7 km/h 89% 1.0 mm 26.00 W/m2
12:50 10.2 °C 8.5 °C 1008.4 hPa South 25.9 km/h 25.7 km/h 89% 1.3 mm 51.00 W/m2
12:55 10.1 °C 8.5 °C 1008.4 hPa ESE 9.7 km/h 17.7 km/h 90% 1.5 mm 30.00 W/m2
13:00 10.1 °C 8.5 °C 1008.4 hPa South 7.9 km/h 20.9 km/h 90% 1.3 mm 33.00 W/m2
13:05 10.2 °C 8.8 °C 1008.0 hPa SE 14.3 km/h 35.4 km/h 91% 1.5 mm 35.00 W/m2
13:10 10.2 °C 8.6 °C 1007.7 hPa ESE 20.9 km/h 30.6 km/h 90% 1.5 mm 35.00 W/m2
13:15 10.2 °C 8.6 °C 1007.7 hPa East 16.3 km/h 22.5 km/h 90% 1.5 mm 33.00 W/m2
13:20 10.2 °C 8.6 °C 1007.7 hPa SE 11.1 km/h 33.8 km/h 90% 1.5 mm 32.00 W/m2
13:25 10.2 °C 8.8 °C 1007.3 hPa ESE 9.7 km/h 22.5 km/h 91% 1.5 mm 30.00 W/m2
13:30 10.2 °C 8.8 °C 1007.0 hPa SSE 7.9 km/h 19.3 km/h 91% 1.5 mm 30.00 W/m2
13:35 10.2 °C 8.8 °C 1007.0 hPa SSE 9.7 km/h 24.1 km/h 91% 1.5 mm 25.00 W/m2
13:40 10.2 °C 8.8 °C 1007.0 hPa East 7.9 km/h 33.8 km/h 91% 1.5 mm 26.00 W/m2
13:45 10.3 °C 8.9 °C 1007.0 hPa ENE 11.1 km/h 27.4 km/h 91% 1.5 mm 28.00 W/m2
13:50 10.3 °C 8.9 °C 1007.0 hPa SW 22.7 km/h 27.4 km/h 91% 1.5 mm 19.00 W/m2
13:55 10.2 °C 8.8 °C 1007.0 hPa SSE 7.9 km/h 17.7 km/h 91% 1.5 mm 23.00 W/m2
14:00 10.2 °C 8.8 °C 1007.0 hPa ESE 13.0 km/h 17.7 km/h 91% 1.5 mm 16.00 W/m2
14:05 10.2 °C 8.8 °C 1006.7 hPa SSE 7.9 km/h 19.3 km/h 91% 1.5 mm 18.00 W/m2
14:10 10.2 °C 9.0 °C 1006.7 hPa SE 9.7 km/h 27.4 km/h 92% 1.5 mm 11.00 W/m2
14:15 10.2 °C 9.0 °C 1006.3 hPa SSE 20.9 km/h 24.1 km/h 92% 1.5 mm 21.00 W/m2
14:20 10.2 °C 9.0 °C 1006.3 hPa SE 9.7 km/h 16.1 km/h 92% 1.5 mm 18.00 W/m2
14:25 10.3 °C 9.1 °C 1006.3 hPa SE 9.7 km/h 24.1 km/h 92% 1.5 mm 12.00 W/m2
14:30 10.3 °C 9.1 °C 1006.0 hPa SSE 4.7 km/h 32.2 km/h 92% 1.5 mm 9.00 W/m2
14:35 10.3 °C 8.9 °C 1006.0 hPa South 20.9 km/h 22.5 km/h 91% 1.5 mm 7.00 W/m2
14:40 10.4 °C 9.0 °C 1006.0 hPa SSW 4.7 km/h 33.8 km/h 91% 1.3 mm 16.00 W/m2
14:45 10.4 °C 9.0 °C 1005.6 hPa SSE 14.3 km/h 22.5 km/h 91% 1.0 mm 14.00 W/m2
14:50 10.6 °C 9.2 °C 1005.6 hPa SSE 11.1 km/h 22.5 km/h 91% 0.8 mm 14.00 W/m2
14:55 10.7 °C 9.3 °C 1005.6 hPa SSW 3.2 km/h 22.5 km/h 91% 0.8 mm 11.00 W/m2
15:00 10.7 °C 9.3 °C 1005.6 hPa SSW 11.1 km/h 27.4 km/h 91% 0.8 mm 11.00 W/m2
15:05 10.8 °C 9.4 °C 1005.6 hPa East 7.9 km/h 25.7 km/h 91% 0.5 mm 21.00 W/m2
15:10 10.8 °C 9.4 °C 1005.3 hPa WSW 16.3 km/h 16.1 km/h 91% 0.5 mm 14.00 W/m2
15:15 11.1 °C 9.7 °C 1005.6 hPa SSE 17.7 km/h 38.6 km/h 91% 0.5 mm 18.00 W/m2
15:20 11.2 °C 9.6 °C 1005.6 hPa SE 11.1 km/h 35.4 km/h 90% 0.5 mm 19.00 W/m2
15:25 11.3 °C 9.7 °C 1005.3 hPa SE 9.7 km/h 37.0 km/h 90% 0.5 mm 12.00 W/m2
15:30 11.4 °C 9.8 °C 1005.0 hPa SW 22.7 km/h 25.7 km/h 90% 0.5 mm 9.00 W/m2
15:35 11.7 °C 9.9 °C 1005.0 hPa South 16.3 km/h 27.4 km/h 89% 0.5 mm 9.00 W/m2
15:40 11.8 °C 10.0 °C 1005.3 hPa West 4.7 km/h 27.4 km/h 89% 0.5 mm 7.00 W/m2
15:45 11.9 °C 10.1 °C 1005.3 hPa South 13.0 km/h 14.5 km/h 89% 0.5 mm 7.00 W/m2
15:50 11.9 °C 10.1 °C 1005.3 hPa SSW 22.7 km/h 33.8 km/h 89% 0.5 mm 5.00 W/m2
15:55 11.9 °C 10.1 °C 1005.0 hPa SSE 37.0 km/h 41.8 km/h 89% 0.3 mm 0.00 W/m2
16:00 12.0 °C 10.1 °C 1005.3 hPa SSE 16.3 km/h 25.7 km/h 88% 0.3 mm 5.00 W/m2
16:05 11.9 °C 10.1 °C 1005.3 hPa SSW 14.3 km/h 27.4 km/h 89% 0.3 mm 0.00 W/m2
16:10 11.9 °C 10.3 °C 1005.0 hPa South 7.9 km/h 29.0 km/h 90% 0.3 mm 0.00 W/m2
16:15 11.9 °C 10.3 °C 1005.0 hPa SE 3.2 km/h 25.7 km/h 90% 0.0 mm 0.00 W/m2
16:20 11.9 °C 10.3 °C 1005.0 hPa SSE 14.3 km/h 14.5 km/h 90% 0.0 mm 0.00 W/m2
16:25 11.9 °C 10.5 °C 1005.3 hPa SSW 11.1 km/h 27.4 km/h 91% 0.0 mm 0.00 W/m2
16:30 12.1 °C 10.7 °C 1005.0 hPa SW 20.9 km/h 20.9 km/h 91% 0.0 mm 0.00 W/m2
16:35 12.2 °C 10.8 °C 1005.3 hPa SW 28.8 km/h 46.7 km/h 91% 0.0 mm 0.00 W/m2
16:40 12.4 °C 11.0 °C 1005.6 hPa SW 24.1 km/h 32.2 km/h 91% 0.0 mm 0.00 W/m2
16:45 12.5 °C 11.1 °C 1005.3 hPa SW 17.7 km/h 40.2 km/h 91% 0.0 mm 0.00 W/m2
16:50 12.4 °C 11.0 °C 1005.6 hPa SW 7.9 km/h 25.7 km/h 91% 0.0 mm 0.00 W/m2
16:55 12.4 °C 11.0 °C 1005.6 hPa SSW 19.5 km/h 43.4 km/h 91% 0.0 mm 0.00 W/m2
17:00 12.3 °C 10.9 °C 1005.6 hPa SW 20.9 km/h 35.4 km/h 91% 0.0 mm 0.00 W/m2
17:05 12.3 °C 10.9 °C 1005.6 hPa West 19.5 km/h 38.6 km/h 91% 0.0 mm 0.00 W/m2
17:10 12.3 °C 10.9 °C 1005.6 hPa SW 16.3 km/h 25.7 km/h 91% 0.0 mm 0.00 W/m2
17:15 12.2 °C 10.6 °C 1006.0 hPa SW 22.7 km/h 32.2 km/h 90% 0.0 mm 0.00 W/m2
17:20 12.3 °C 10.7 °C 1005.6 hPa SSW 13.0 km/h 30.6 km/h 90% 0.0 mm 0.00 W/m2
17:25 12.3 °C 10.7 °C 1006.0 hPa SSW 9.7 km/h 16.1 km/h 90% 0.0 mm 0.00 W/m2
17:30 12.2 °C 10.6 °C 1006.0 hPa WSW 17.7 km/h 17.7 km/h 90% 0.0 mm 0.00 W/m2
17:35 12.3 °C 10.7 °C 1006.0 hPa SW 7.9 km/h 22.5 km/h 90% 0.0 mm 0.00 W/m2
17:40 12.2 °C 10.6 °C 1006.3 hPa SSW 9.7 km/h 33.8 km/h 90% 0.0 mm 0.00 W/m2
17:45 12.2 °C 10.4 °C 1006.3 hPa SSW 9.7 km/h 25.7 km/h 89% 0.0 mm 0.00 W/m2
17:50 12.2 °C 10.4 °C 1006.3 hPa Calm   20.9 km/h 89% 0.0 mm 0.00 W/m2
17:55 12.2 °C 10.4 °C 1006.3 hPa South 9.7 km/h 20.9 km/h 89% 0.0 mm 0.00 W/m2
18:00 12.2 °C 10.6 °C 1006.3 hPa SW 4.7 km/h 27.4 km/h 90% 0.0 mm 0.00 W/m2
18:05 12.2 °C 10.4 °C 1006.3 hPa West 4.7 km/h 17.7 km/h 89% 0.0 mm 0.00 W/m2
18:10 12.2 °C 10.4 °C 1006.7 hPa SW 6.4 km/h 33.8 km/h 89% 0.0 mm 0.00 W/m2
18:15 12.2 °C 10.4 °C 1006.7 hPa SW 14.3 km/h 20.9 km/h 89% 0.0 mm 0.00 W/m2
18:20 12.2 °C 10.4 °C 1006.7 hPa SW 13.0 km/h 30.6 km/h 89% 0.0 mm 0.00 W/m2
18:25 12.2 °C 10.3 °C 1006.7 hPa SW 20.9 km/h 24.1 km/h 88% 0.0 mm 0.00 W/m2
18:30 12.3 °C 10.4 °C 1006.7 hPa South 9.7 km/h 22.5 km/h 88% 0.0 mm 0.00 W/m2
18:35 12.2 °C 10.3 °C 1006.7 hPa SE 28.8 km/h 29.0 km/h 88% 0.0 mm 0.00 W/m2
18:40 12.2 °C 10.3 °C 1006.7 hPa SSW 14.3 km/h 25.7 km/h 88% 0.0 mm 0.00 W/m2
18:45 12.2 °C 10.3 °C 1006.7 hPa SW 13.0 km/h 17.7 km/h 88% 0.0 mm 0.00 W/m2
18:50 12.2 °C 10.1 °C 1006.7 hPa SSE 6.4 km/h 20.9 km/h 87% 0.0 mm 0.00 W/m2
18:55 12.1 °C 10.0 °C 1006.7 hPa South 6.4 km/h 14.5 km/h 87% 0.0 mm 0.00 W/m2
19:00 12.1 °C 10.0 °C 1006.7 hPa SW 14.3 km/h 19.3 km/h 87% 0.0 mm 0.00 W/m2
19:05 12.0 °C 9.9 °C 1006.7 hPa SSW 7.9 km/h 19.3 km/h 87% 0.0 mm 0.00 W/m2
19:10 12.0 °C 9.9 °C 1007.0 hPa WSW 4.7 km/h 22.5 km/h 87% 0.0 mm 0.00 W/m2
19:15 12.0 °C 10.1 °C 1007.0 hPa WSW 4.7 km/h 27.4 km/h 88% 0.0 mm 0.00 W/m2
19:20 12.0 °C 9.9 °C 1007.0 hPa SW 13.0 km/h 22.5 km/h 87% 0.0 mm 0.00 W/m2
19:25 12.0 °C 9.9 °C 1007.3 hPa SW 13.0 km/h 22.5 km/h 87% 0.0 mm 0.00 W/m2
19:30 11.9 °C 9.8 °C 1007.3 hPa SW 7.9 km/h 12.9 km/h 87% 0.0 mm 0.00 W/m2
19:35 11.9 °C 9.6 °C 1007.3 hPa South 7.9 km/h 22.5 km/h 86% 0.0 mm 0.00 W/m2
19:40 11.8 °C 9.5 °C 1007.3 hPa SSW 16.3 km/h 16.1 km/h 86% 0.0 mm 0.00 W/m2
19:45 11.7 °C 9.3 °C 1007.3 hPa SSW 7.9 km/h 16.1 km/h 85% 0.0 mm 0.00 W/m2
19:50 11.7 °C 9.3 °C 1007.7 hPa SSW 9.7 km/h 20.9 km/h 85% 0.0 mm 0.00 W/m2
19:55 11.6 °C 9.2 °C 1007.7 hPa WNW 19.5 km/h 25.7 km/h 85% 0.0 mm 0.00 W/m2
20:00 11.5 °C 9.1 °C 1007.7 hPa SSW 7.9 km/h 19.3 km/h 85% 0.0 mm 0.00 W/m2
20:05 11.4 °C 8.8 °C 1007.7 hPa SW 3.2 km/h 20.9 km/h 84% 0.0 mm 0.00 W/m2
20:10 11.4 °C 8.8 °C 1007.7 hPa South 14.3 km/h 20.9 km/h 84% 0.0 mm 0.00 W/m2
20:15 11.3 °C 8.7 °C 1007.7 hPa SW 19.5 km/h 19.3 km/h 84% 0.0 mm 0.00 W/m2
20:20 11.3 °C 8.7 °C 1007.7 hPa SSW 9.7 km/h 24.1 km/h 84% 0.0 mm 0.00 W/m2
20:25 11.2 °C 8.6 °C 1007.7 hPa South 4.7 km/h 20.9 km/h 84% 0.0 mm 0.00 W/m2
20:30 11.1 °C 8.5 °C 1007.7 hPa South 9.7 km/h 12.9 km/h 84% 0.0 mm 0.00 W/m2
20:35 11.1 °C 8.5 °C 1007.7 hPa SSW 4.7 km/h 9.7 km/h 84% 0.0 mm 0.00 W/m2
20:40 11.1 °C 8.5 °C 1007.7 hPa SSW 14.3 km/h 19.3 km/h 84% 0.0 mm 0.00 W/m2
20:45 11.0 °C 8.4 °C 1007.7 hPa South 6.4 km/h 12.9 km/h 84% 0.0 mm 0.00 W/m2
20:50 11.0 °C 8.4 °C 1007.7 hPa SSW 1.4 km/h 17.7 km/h 84% 0.0 mm 0.00 W/m2
20:55 10.9 °C 8.3 °C 1008.0 hPa SSW 4.7 km/h 12.9 km/h 84% 0.0 mm 0.00 W/m2
21:00 10.8 °C 8.2 °C 1008.0 hPa SSW 4.7 km/h 8.0 km/h 84% 0.0 mm 0.00 W/m2
21:05 10.8 °C 8.4 °C 1008.0 hPa SSW 1.4 km/h 4.8 km/h 85% 0.0 mm 0.00 W/m2
21:10 10.8 °C 8.4 °C 1008.0 hPa SW 4.7 km/h 6.4 km/h 85% 0.0 mm 0.00 W/m2
21:15 10.7 °C 8.3 °C 1008.0 hPa South 4.7 km/h 12.9 km/h 85% 0.0 mm 0.00 W/m2
21:20 10.6 °C 8.2 °C 1008.4 hPa SSW 7.9 km/h 9.7 km/h 85% 0.0 mm 0.00 W/m2
21:25 10.5 °C 8.1 °C 1008.4 hPa South 4.7 km/h 8.0 km/h 85% 0.0 mm 0.00 W/m2
21:30 10.4 °C 8.0 °C 1008.4 hPa SSW 6.4 km/h 14.5 km/h 85% 0.0 mm 0.00 W/m2
21:35 10.4 °C 8.0 °C 1008.4 hPa SSW 4.7 km/h 12.9 km/h 85% 0.0 mm 0.00 W/m2
21:40 10.4 °C 8.0 °C 1008.0 hPa South 11.1 km/h 16.1 km/h 85% 0.0 mm 0.00 W/m2
21:45 10.4 °C 8.2 °C 1008.4 hPa SSW 3.2 km/h 14.5 km/h 86% 0.0 mm 0.00 W/m2
21:50 10.4 °C 8.2 °C 1008.4 hPa South 7.9 km/h 16.1 km/h 86% 0.0 mm 0.00 W/m2
21:55 10.4 °C 8.2 °C 1008.4 hPa SSW 7.9 km/h 16.1 km/h 86% 0.0 mm 0.00 W/m2
22:00 10.3 °C 8.2 °C 1008.4 hPa SSW 3.2 km/h 14.5 km/h 87% 0.0 mm 0.00 W/m2
22:05 10.3 °C 8.2 °C 1008.4 hPa SSW 3.2 km/h 11.3 km/h 87% 0.0 mm 0.00 W/m2
22:10 10.3 °C 8.2 °C 1008.4 hPa South 7.9 km/h 12.9 km/h 87% 0.0 mm 0.00 W/m2
22:15 10.2 °C 8.3 °C 1008.4 hPa South 14.3 km/h 22.5 km/h 88% 0.0 mm 0.00 W/m2
22:20 10.2 °C 8.3 °C 1008.4 hPa SSW 7.9 km/h 14.5 km/h 88% 0.0 mm 0.00 W/m2
22:25 10.2 °C 8.3 °C 1008.4 hPa SSW 9.7 km/h 16.1 km/h 88% 0.0 mm 0.00 W/m2
22:30 10.2 °C 8.3 °C 1008.4 hPa South 7.9 km/h 11.3 km/h 88% 0.0 mm 0.00 W/m2
22:35 10.2 °C 8.3 °C 1008.7 hPa South 7.9 km/h 16.1 km/h 88% 0.0 mm 0.00 W/m2
22:40 10.2 °C 8.3 °C 1008.4 hPa South 9.7 km/h 16.1 km/h 88% 0.0 mm 0.00 W/m2
22:45 10.2 °C 8.3 °C 1008.4 hPa SSW 19.5 km/h 19.3 km/h 88% 0.0 mm 0.00 W/m2
22:50 10.2 °C 8.3 °C 1008.4 hPa SSW 13.0 km/h 14.5 km/h 88% 0.0 mm 0.00 W/m2
22:55 10.2 °C 8.3 °C 1008.7 hPa SSW 6.4 km/h 19.3 km/h 88% 0.0 mm 0.00 W/m2
23:00 10.2 °C 8.3 °C 1008.7 hPa Calm   14.5 km/h 88% 0.0 mm 0.00 W/m2
23:05 10.1 °C 8.2 °C 1008.4 hPa SW 7.9 km/h 12.9 km/h 88% 0.0 mm 0.00 W/m2
23:10 10.1 °C 8.2 °C 1008.4 hPa South 16.3 km/h 19.3 km/h 88% 0.0 mm 0.00 W/m2
23:15 10.0 °C 8.1 °C 1008.4 hPa SSW 7.9 km/h 16.1 km/h 88% 0.0 mm 0.00 W/m2
23:20 10.0 °C 8.1 °C 1008.4 hPa South 11.1 km/h 20.9 km/h 88% 0.0 mm 0.00 W/m2
23:25 10.0 °C 8.1 °C 1008.4 hPa SSE 1.4 km/h 12.9 km/h 88% 0.0 mm 0.00 W/m2
23:30 9.9 °C 8.0 °C 1008.4 hPa SSW 6.4 km/h 20.9 km/h 88% 0.0 mm 0.00 W/m2
23:35 10.0 °C 8.1 °C 1008.0 hPa SSE 4.7 km/h 9.7 km/h 88% 0.0 mm 0.00 W/m2
23:40 9.9 °C 8.0 °C 1008.0 hPa South 6.4 km/h 12.9 km/h 88% 0.0 mm 0.00 W/m2
23:45 9.9 °C 8.0 °C 1008.0 hPa South 6.4 km/h 12.9 km/h 88% 0.0 mm 0.00 W/m2
23:50 9.9 °C 8.0 °C 1008.0 hPa SSW 9.7 km/h 16.1 km/h 88% 0.0 mm 0.00 W/m2
23:55 9.9 °C 8.0 °C 1008.0 hPa SSE 6.4 km/h 12.9 km/h 88% 0.0 mm 0.00 W/m2